createdAt,value
2018-08-28T01:00:32.384Z,17.86
2018-08-28T01:01:32.332Z,17.84
2018-08-28T01:02:32.331Z,17.84
2018-08-28T01:03:32.309Z,17.81
2018-08-28T01:04:32.297Z,17.84
2018-08-28T01:05:32.337Z,17.78
2018-08-28T01:06:32.275Z,17.84
2018-08-28T01:07:32.264Z,17.78
2018-08-28T01:08:32.275Z,17.79
2018-08-28T01:09:32.242Z,17.82
2018-08-28T01:10:32.280Z,17.81
2018-08-28T01:11:32.220Z,17.82
2018-08-28T01:12:32.209Z,17.81
2018-08-28T01:13:32.197Z,17.82
2018-08-28T01:14:32.211Z,17.79
2018-08-28T01:15:32.223Z,17.82
2018-08-28T01:16:32.164Z,17.81
2018-08-28T01:17:32.158Z,17.79
2018-08-28T01:18:32.141Z,17.82
2018-08-28T01:19:32.130Z,17.81
2018-08-28T01:20:32.171Z,17.79
2018-08-28T01:21:32.115Z,17.79
2018-08-28T01:22:32.111Z,17.78
2018-08-28T01:23:32.086Z,17.79
2018-08-28T01:24:32.087Z,17.75
2018-08-28T01:25:32.115Z,17.71
2018-08-28T01:26:32.072Z,17.68
2018-08-28T01:27:32.045Z,17.70
2018-08-28T01:28:32.032Z,17.75
2018-08-28T01:29:32.018Z,17.63
2018-08-28T01:30:32.070Z,17.75
2018-08-28T01:31:32.001Z,17.74
2018-08-28T01:32:31.985Z,17.59
2018-08-28T01:33:31.980Z,17.74
2018-08-28T01:34:31.962Z,17.70
2018-08-28T01:35:32.012Z,17.62
2018-08-28T01:36:31.939Z,17.64
2018-08-28T01:37:31.935Z,17.70
2018-08-28T01:38:31.920Z,17.59
2018-08-28T01:39:31.905Z,17.62
2018-08-28T01:40:31.964Z,17.63
2018-08-28T01:41:31.885Z,17.62
2018-08-28T01:42:31.872Z,17.58
2018-08-28T01:43:31.888Z,17.64
2018-08-28T01:44:31.874Z,17.64
2018-08-28T01:45:31.894Z,17.63
2018-08-28T01:46:31.826Z,17.63
2018-08-28T01:47:31.816Z,17.68
2018-08-28T01:48:31.822Z,17.55
2018-08-28T01:49:31.821Z,17.55
2018-08-28T01:50:31.884Z,17.59
2018-08-28T01:51:31.779Z,17.56
2018-08-28T01:52:31.781Z,17.58
2018-08-28T01:53:31.749Z,17.58
2018-08-28T01:54:31.745Z,17.48
2018-08-28T01:55:31.770Z,17.55
2018-08-28T01:56:31.713Z,17.54
2018-08-28T01:57:31.703Z,17.48
2018-08-28T01:58:31.690Z,17.43
2018-08-28T01:59:31.682Z,17.51
2018-08-28T02:00:31.715Z,17.41
2018-08-28T02:01:31.660Z,17.49
2018-08-28T02:02:31.646Z,17.52
2018-08-28T02:03:31.636Z,17.48
2018-08-28T02:04:31.625Z,17.51
2018-08-28T02:05:31.661Z,17.40
2018-08-28T02:06:31.607Z,17.37
2018-08-28T02:07:31.590Z,17.38
2018-08-28T02:08:31.578Z,17.36
2018-08-28T02:09:31.567Z,17.31
2018-08-28T02:10:31.602Z,17.33
2018-08-28T02:11:31.545Z,17.28
2018-08-28T02:12:31.537Z,17.33
2018-08-28T02:13:31.522Z,17.31
2018-08-28T02:14:31.514Z,17.31
2018-08-28T02:15:31.547Z,17.26
2018-08-28T02:16:31.487Z,17.28
2018-08-28T02:17:31.480Z,17.33
2018-08-28T02:18:31.478Z,17.34
2018-08-28T02:19:31.455Z,17.33
2018-08-28T02:20:31.496Z,17.22
2018-08-28T02:21:31.431Z,17.25
2018-08-28T02:22:31.424Z,17.22
2018-08-28T02:23:31.415Z,17.18
2018-08-28T02:24:31.413Z,17.23
2018-08-28T02:25:31.452Z,17.22
2018-08-28T02:26:31.377Z,17.22
2018-08-28T02:27:31.374Z,17.31
2018-08-28T02:28:31.358Z,17.26
2018-08-28T02:29:31.346Z,17.23
2018-08-28T02:30:31.384Z,17.22
2018-08-28T02:31:31.322Z,17.22
2018-08-28T02:32:31.311Z,17.14
2018-08-28T02:33:31.337Z,17.15
2018-08-28T02:34:31.295Z,17.15
2018-08-28T02:35:31.334Z,17.08
2018-08-28T02:36:31.270Z,17.12
2018-08-28T02:37:31.256Z,17.07
2018-08-28T02:38:31.249Z,17.12
2018-08-28T02:39:31.234Z,17.12
2018-08-28T02:40:31.274Z,17.08
2018-08-28T02:41:31.226Z,17.11
2018-08-28T02:42:31.201Z,17.07
2018-08-28T02:43:31.190Z,17.08
2018-08-28T02:44:31.182Z,17.08
2018-08-28T02:45:31.224Z,17.08
2018-08-28T02:46:31.160Z,16.98
2018-08-28T02:47:31.155Z,17.03
2018-08-28T02:48:31.136Z,16.96
2018-08-28T02:49:31.124Z,17.00
2018-08-28T02:50:31.161Z,16.93
2018-08-28T02:51:31.106Z,16.98
2018-08-28T02:52:31.095Z,16.98
2018-08-28T02:53:31.099Z,16.96
2018-08-28T02:54:31.069Z,16.88
2018-08-28T02:55:31.111Z,16.89
2018-08-28T02:56:31.051Z,16.89
2018-08-28T02:57:31.041Z,16.94
2018-08-28T02:58:31.037Z,16.91
2018-08-28T02:59:31.018Z,16.88
2018-08-28T03:00:31.004Z,16.89
2018-08-28T03:01:31.045Z,16.85
2018-08-28T03:02:30.982Z,16.85
2018-08-28T03:03:30.975Z,16.82
2018-08-28T03:04:30.967Z,16.79
2018-08-28T03:05:30.952Z,16.68
2018-08-28T03:06:31.028Z,16.66
2018-08-28T03:07:30.930Z,16.58
2018-08-28T03:08:30.925Z,16.66
2018-08-28T03:09:30.907Z,16.60
2018-08-28T03:10:30.899Z,16.50
2018-08-28T03:11:31.009Z,16.57
2018-08-28T03:12:30.871Z,16.53
2018-08-28T03:13:30.863Z,16.57
2018-08-28T03:14:30.853Z,16.48
2018-08-28T03:15:30.916Z,16.46
2018-08-28T03:16:30.880Z,16.48
2018-08-28T03:17:30.816Z,16.50
2018-08-28T03:18:30.805Z,16.42
2018-08-28T03:19:30.802Z,16.41
2018-08-28T03:20:30.783Z,16.41
2018-08-28T03:21:30.820Z,16.38
2018-08-28T03:22:30.767Z,16.28
2018-08-28T03:23:30.750Z,16.31
2018-08-28T03:24:30.743Z,16.34
2018-08-28T03:25:30.733Z,16.42
2018-08-28T03:26:30.775Z,16.33
2018-08-28T03:27:30.709Z,16.34
2018-08-28T03:28:30.694Z,16.33
2018-08-28T03:29:30.687Z,16.34
2018-08-28T03:30:30.685Z,16.33
2018-08-28T03:31:30.708Z,16.33
2018-08-28T03:32:30.648Z,16.24
2018-08-28T03:33:30.646Z,16.17
2018-08-28T03:34:30.629Z,16.11
2018-08-28T03:35:30.621Z,16.14
2018-08-28T03:36:30.652Z,16.27
2018-08-28T03:37:30.604Z,16.27
2018-08-28T03:38:30.593Z,16.27
2018-08-28T03:39:30.578Z,16.30
2018-08-28T03:40:30.563Z,16.28
2018-08-28T03:41:30.597Z,16.24
2018-08-28T03:42:30.550Z,16.33
2018-08-28T03:43:30.528Z,16.25
2018-08-28T03:44:30.520Z,16.25
2018-08-28T03:45:30.505Z,16.33
2018-08-28T03:46:30.541Z,16.27
2018-08-28T03:47:30.487Z,16.35
2018-08-28T03:48:30.476Z,16.27
2018-08-28T03:49:30.460Z,16.23
2018-08-28T03:50:30.454Z,16.25
2018-08-28T03:51:30.528Z,16.17
2018-08-28T03:52:30.441Z,16.25
2018-08-28T03:53:30.415Z,16.20
2018-08-28T03:54:30.406Z,16.25
2018-08-28T03:55:30.473Z,16.14
2018-08-28T03:56:30.430Z,16.17
2018-08-28T03:57:30.374Z,16.17
2018-08-28T03:58:30.363Z,16.17
2018-08-28T03:59:30.351Z,16.14
2018-08-28T04:00:30.338Z,16.14
2018-08-28T04:01:30.379Z,16.07
2018-08-28T04:02:30.319Z,16.08
2018-08-28T04:03:30.343Z,16.05
2018-08-28T04:04:30.296Z,16.04
2018-08-28T04:05:30.287Z,16.02
2018-08-28T04:06:30.320Z,16.01
2018-08-28T04:07:30.269Z,15.97
2018-08-28T04:08:30.254Z,15.92
2018-08-28T04:09:30.241Z,15.90
2018-08-28T04:10:30.231Z,15.92
2018-08-28T04:11:30.265Z,15.83
2018-08-28T04:12:30.207Z,15.78
2018-08-28T04:13:30.193Z,15.76
2018-08-28T04:14:30.186Z,15.80
2018-08-28T04:15:30.218Z,15.76
2018-08-28T04:16:30.212Z,15.74
2018-08-28T04:17:30.165Z,15.72
2018-08-28T04:18:30.139Z,15.76
2018-08-28T04:19:30.133Z,15.75
2018-08-28T04:20:30.123Z,15.65
2018-08-28T04:21:30.161Z,15.68
2018-08-28T04:22:30.142Z,15.71
2018-08-28T04:23:30.084Z,15.65
2018-08-28T04:24:30.075Z,15.62
2018-08-28T04:25:30.074Z,15.64
2018-08-28T04:26:30.131Z,15.60
2018-08-28T04:27:30.062Z,15.60
2018-08-28T04:28:30.025Z,15.62
2018-08-28T04:29:30.020Z,15.60
2018-08-28T04:30:30.038Z,15.65
2018-08-28T04:31:30.047Z,15.54
2018-08-28T04:32:29.990Z,15.62
2018-08-28T04:33:29.973Z,15.59
2018-08-28T04:34:29.961Z,15.57
2018-08-28T04:35:29.951Z,15.59
2018-08-28T04:36:29.995Z,15.62
2018-08-28T04:37:29.937Z,15.69
2018-08-28T04:38:29.916Z,15.65
2018-08-28T04:39:29.903Z,15.67
2018-08-28T04:40:29.898Z,15.60
2018-08-28T04:41:29.931Z,15.60
2018-08-28T04:42:29.871Z,15.69
2018-08-28T04:43:29.858Z,15.67
2018-08-28T04:44:29.851Z,15.74
2018-08-28T04:45:29.836Z,15.76
2018-08-28T04:46:29.871Z,15.78
2018-08-28T04:47:29.819Z,15.76
2018-08-28T04:48:29.857Z,15.65
2018-08-28T04:49:29.795Z,15.68
2018-08-28T04:50:29.781Z,15.59
2018-08-28T04:51:29.824Z,15.65
2018-08-28T04:52:29.832Z,15.62
2018-08-28T04:53:29.761Z,15.57
2018-08-28T04:54:29.736Z,15.62
2018-08-28T04:55:29.728Z,15.65
2018-08-28T04:56:29.763Z,15.65
2018-08-28T04:57:29.704Z,15.53
2018-08-28T04:58:29.698Z,15.62
2018-08-28T04:59:29.687Z,15.64
2018-08-28T05:00:29.710Z,15.62
2018-08-28T05:01:29.720Z,15.62
2018-08-28T05:02:29.652Z,15.56
2018-08-28T05:03:29.636Z,15.47
2018-08-28T05:04:29.626Z,15.53
2018-08-28T05:05:29.617Z,15.50
2018-08-28T05:06:29.648Z,15.43
2018-08-28T05:07:29.593Z,15.43
2018-08-28T05:08:29.586Z,15.36
2018-08-28T05:09:29.571Z,15.34
2018-08-28T05:10:29.559Z,15.35
2018-08-28T05:11:29.593Z,15.34
2018-08-28T05:12:29.544Z,15.34
2018-08-28T05:13:29.526Z,15.32
2018-08-28T05:14:29.530Z,15.35
2018-08-28T05:15:29.505Z,15.29
2018-08-28T05:16:29.553Z,15.36
2018-08-28T05:17:29.481Z,15.36
2018-08-28T05:18:29.473Z,15.38
2018-08-28T05:19:29.499Z,15.38
2018-08-28T05:20:29.450Z,15.35
2018-08-28T05:21:29.444Z,15.36
2018-08-28T05:22:29.476Z,15.34
2018-08-28T05:23:29.415Z,15.38
2018-08-28T05:24:29.406Z,15.44
2018-08-28T05:25:29.394Z,15.49
2018-08-28T05:26:29.380Z,15.44
2018-08-28T05:27:29.416Z,15.44
2018-08-28T05:28:29.360Z,15.44
2018-08-28T05:29:29.353Z,15.44
2018-08-28T05:30:29.358Z,15.41
2018-08-28T05:31:29.325Z,15.41
2018-08-28T05:32:29.363Z,15.47
2018-08-28T05:33:29.303Z,15.44
2018-08-28T05:34:29.293Z,15.35
2018-08-28T05:35:29.285Z,15.34
2018-08-28T05:36:29.299Z,15.44
2018-08-28T05:37:29.305Z,15.44
2018-08-28T05:38:29.252Z,15.49
2018-08-28T05:39:29.234Z,15.47
2018-08-28T05:40:29.225Z,15.50
2018-08-28T05:41:29.218Z,15.53
2018-08-28T05:42:29.247Z,15.59
2018-08-28T05:43:29.195Z,15.51
2018-08-28T05:44:29.185Z,15.47
2018-08-28T05:45:29.168Z,15.47
2018-08-28T05:46:29.159Z,15.43
2018-08-28T05:47:29.199Z,15.54
2018-08-28T05:48:29.136Z,15.51
2018-08-28T05:49:29.183Z,15.65
2018-08-28T05:50:29.121Z,15.59
2018-08-28T05:51:29.101Z,15.71
2018-08-28T05:52:29.142Z,15.89
2018-08-28T05:53:29.081Z,16.11
2018-08-28T05:54:29.068Z,16.20
2018-08-28T05:55:29.061Z,16.25
2018-08-28T05:56:29.056Z,16.27
2018-08-28T05:57:29.080Z,16.34
2018-08-28T05:58:29.025Z,16.33
2018-08-28T05:59:29.064Z,16.39
2018-08-28T06:00:29.003Z,16.46
2018-08-28T06:01:28.996Z,16.71
2018-08-28T06:02:29.032Z,16.96
2018-08-28T06:03:29.231Z,16.94
2018-08-28T06:04:28.956Z,16.97
2018-08-28T06:05:29.047Z,16.85
2018-08-28T06:06:28.936Z,16.71
2018-08-28T06:07:29.010Z,16.73
2018-08-28T06:08:28.934Z,16.66
2018-08-28T06:09:28.900Z,16.63
2018-08-28T06:10:28.894Z,16.60
2018-08-28T06:11:28.895Z,16.58
2018-08-28T06:12:28.920Z,16.57
2018-08-28T06:13:28.874Z,16.64
2018-08-28T06:14:28.847Z,16.70
2018-08-28T06:15:28.834Z,16.73
2018-08-28T06:16:28.826Z,16.83
2018-08-28T06:17:28.920Z,16.93
2018-08-28T06:18:28.803Z,16.93
2018-08-28T06:19:28.791Z,17.07
2018-08-28T06:20:28.780Z,17.14
2018-08-28T06:21:28.770Z,17.11
2018-08-28T06:22:28.803Z,17.21
2018-08-28T06:23:28.748Z,17.26
2018-08-28T06:24:28.748Z,17.25
2018-08-28T06:25:28.724Z,17.19
2018-08-28T06:26:28.776Z,17.31
2018-08-28T06:27:28.761Z,17.40
2018-08-28T06:28:28.692Z,17.59
2018-08-28T06:29:28.692Z,17.56
2018-08-28T06:30:28.687Z,17.75
2018-08-28T06:31:28.658Z,17.74
2018-08-28T06:32:28.708Z,17.84
2018-08-28T06:33:28.641Z,17.78
2018-08-28T06:34:28.630Z,17.77
2018-08-28T06:35:28.622Z,17.82
2018-08-28T06:36:28.615Z,17.86
2018-08-28T06:37:28.650Z,17.84
2018-08-28T06:38:28.581Z,17.99
2018-08-28T06:39:28.568Z,18.08
2018-08-28T06:40:28.568Z,18.15
2018-08-28T06:41:28.550Z,17.99
2018-08-28T06:42:28.607Z,17.86
2018-08-28T06:43:28.590Z,17.90
2018-08-28T06:44:28.514Z,17.95
2018-08-28T06:45:28.503Z,17.93
2018-08-28T06:46:28.493Z,17.93
2018-08-28T06:47:28.540Z,17.96
2018-08-28T06:48:28.467Z,18.05
2018-08-28T06:49:28.464Z,17.97
2018-08-28T06:50:28.444Z,18.20
2018-08-28T06:51:28.436Z,18.27
2018-08-28T06:52:28.474Z,18.48
2018-08-28T06:53:28.410Z,18.60
2018-08-28T06:54:28.398Z,18.63
2018-08-28T06:55:28.395Z,18.72
2018-08-28T06:56:28.380Z,18.72
2018-08-28T06:57:28.412Z,18.73
2018-08-28T06:58:28.363Z,18.78
2018-08-28T06:59:28.342Z,18.87
2018-08-28T07:00:28.331Z,18.88
2018-08-28T07:01:28.320Z,18.84
2018-08-28T07:02:28.389Z,18.73
2018-08-28T07:03:28.315Z,18.72
2018-08-28T07:04:28.294Z,18.73
2018-08-28T07:05:28.280Z,18.78
2018-08-28T07:06:28.263Z,18.92
2018-08-28T07:07:28.305Z,18.95
2018-08-28T07:08:28.260Z,19.14
2018-08-28T07:09:28.232Z,19.22
2018-08-28T07:10:28.223Z,19.31
2018-08-28T07:11:28.212Z,19.32
2018-08-28T07:12:28.196Z,19.32
2018-08-28T07:13:28.234Z,19.31
2018-08-28T07:14:28.188Z,19.21
2018-08-28T07:15:28.184Z,19.18
2018-08-28T07:16:28.153Z,19.10
2018-08-28T07:17:28.146Z,19.08
2018-08-28T07:18:28.529Z,19.13
2018-08-28T07:19:28.970Z,19.18
2018-08-28T07:20:28.142Z,19.14
2018-08-28T07:21:28.130Z,19.21
2018-08-28T07:22:28.114Z,19.19
2018-08-28T07:23:28.208Z,19.14
2018-08-28T07:24:28.080Z,19.25
2018-08-28T07:25:28.125Z,19.32
2018-08-28T07:26:28.041Z,19.36
2018-08-28T07:27:28.148Z,19.23
2018-08-28T07:28:28.068Z,19.32
2018-08-28T07:29:28.010Z,19.41
2018-08-28T07:30:28.001Z,19.44
2018-08-28T07:31:28.097Z,19.32
2018-08-28T07:32:27.976Z,19.33
2018-08-28T07:33:28.027Z,19.31
2018-08-28T07:34:27.977Z,19.40
2018-08-28T07:35:27.944Z,19.51
2018-08-28T07:36:27.934Z,19.54
2018-08-28T07:37:27.931Z,19.54
2018-08-28T07:38:27.960Z,19.50
2018-08-28T07:39:27.906Z,19.37
2018-08-28T07:40:27.888Z,19.46
2018-08-28T07:41:27.893Z,19.43
2018-08-28T07:42:27.870Z,19.36
2018-08-28T07:43:27.902Z,19.44
2018-08-28T07:44:27.845Z,19.48
2018-08-28T07:45:27.831Z,19.51
2018-08-28T07:46:27.820Z,19.48
2018-08-28T07:47:27.821Z,19.56
2018-08-28T07:48:27.987Z,19.51
2018-08-28T07:49:27.792Z,19.51
2018-08-28T07:50:27.774Z,19.51
2018-08-28T07:51:27.767Z,19.63
2018-08-28T07:52:27.753Z,19.63
2018-08-28T07:53:27.787Z,19.69
2018-08-28T07:54:27.732Z,19.63
2018-08-28T07:55:27.728Z,19.71
2018-08-28T07:56:27.715Z,19.76
2018-08-28T07:57:27.699Z,19.83
2018-08-28T07:58:27.741Z,19.73
2018-08-28T07:59:27.676Z,19.81
2018-08-28T08:00:27.668Z,19.77
2018-08-28T08:01:27.742Z,19.80
2018-08-28T08:02:27.642Z,19.99
2018-08-28T08:03:27.680Z,20.03
2018-08-28T08:04:27.625Z,20.03
2018-08-28T08:05:27.609Z,20.14
2018-08-28T08:06:27.598Z,20.18
2018-08-28T08:07:27.590Z,20.13
2018-08-28T08:08:27.621Z,19.99
2018-08-28T08:09:27.573Z,19.88
2018-08-28T08:10:27.624Z,19.92
2018-08-28T08:11:27.543Z,20.10
2018-08-28T08:12:27.530Z,20.16
2018-08-28T08:13:27.568Z,20.31
2018-08-28T08:14:27.509Z,20.35
2018-08-28T08:15:27.506Z,20.47
2018-08-28T08:16:27.486Z,20.39
2018-08-28T08:17:27.476Z,20.39
2018-08-28T08:18:27.512Z,20.52
2018-08-28T08:19:27.481Z,20.64
2018-08-28T08:20:27.445Z,20.61
2018-08-28T08:21:27.436Z,20.59
2018-08-28T08:22:27.420Z,20.80
2018-08-28T08:23:27.456Z,20.97
2018-08-28T08:24:27.405Z,21.03
2018-08-28T08:25:27.387Z,21.12
2018-08-28T08:26:27.378Z,21.16
2018-08-28T08:27:27.369Z,21.37
2018-08-28T08:28:27.402Z,21.53
2018-08-28T08:29:27.347Z,21.79
2018-08-28T08:30:27.349Z,21.69
2018-08-28T08:31:27.322Z,21.62
2018-08-28T08:32:27.310Z,21.43
2018-08-28T08:33:27.348Z,21.29
2018-08-28T08:34:27.288Z,21.14
2018-08-28T08:35:27.523Z,21.07
2018-08-28T08:36:27.281Z,21.29
2018-08-28T08:37:27.258Z,21.10
2018-08-28T08:38:27.291Z,20.99
2018-08-28T08:39:27.235Z,20.84
2018-08-28T08:40:27.221Z,20.77
2018-08-28T08:41:27.251Z,20.84
2018-08-28T08:42:27.198Z,20.80
2018-08-28T08:43:27.234Z,20.89
2018-08-28T08:44:27.209Z,20.89
2018-08-28T08:45:27.165Z,20.98
2018-08-28T08:46:27.171Z,20.94
2018-08-28T08:47:27.148Z,20.92
2018-08-28T08:48:27.179Z,20.74
2018-08-28T08:49:27.128Z,20.82
2018-08-28T08:50:27.110Z,20.95
2018-08-28T08:51:27.098Z,21.01
2018-08-28T08:52:27.088Z,20.92
2018-08-28T08:53:27.120Z,21.09
2018-08-28T08:54:27.068Z,21.24
2018-08-28T08:55:27.052Z,21.31
2018-08-28T08:56:27.041Z,21.25
2018-08-28T08:57:27.061Z,21.27
2018-08-28T08:58:27.067Z,20.98
2018-08-28T08:59:27.015Z,21.07
2018-08-28T09:00:27.001Z,21.14
2018-08-28T09:01:26.987Z,21.10
2018-08-28T09:02:26.975Z,21.21
2018-08-28T09:03:27.012Z,21.27
2018-08-28T09:04:26.970Z,21.31
2018-08-28T09:05:26.942Z,21.28
2018-08-28T09:06:26.933Z,21.28
2018-08-28T09:07:26.918Z,21.29
2018-08-28T09:08:26.963Z,21.35
2018-08-28T09:09:26.896Z,21.38
2018-08-28T09:10:26.900Z,21.49
2018-08-28T09:11:26.875Z,21.47
2018-08-28T09:12:26.862Z,21.38
2018-08-28T09:13:27.015Z,21.40
2018-08-28T09:14:26.841Z,21.42
2018-08-28T09:15:26.830Z,21.46
2018-08-28T09:16:26.816Z,21.40
2018-08-28T09:17:26.815Z,21.43
2018-08-28T09:18:26.849Z,21.40
2018-08-28T09:19:26.876Z,21.35
2018-08-28T09:20:26.770Z,21.43
2018-08-28T09:21:26.763Z,21.43
2018-08-28T09:22:26.746Z,21.53
2018-08-28T09:23:26.784Z,21.44
2018-08-28T09:24:26.732Z,21.32
2018-08-28T09:25:26.715Z,21.25
2018-08-28T09:26:26.704Z,21.31
2018-08-28T09:27:26.699Z,21.35
2018-08-28T09:28:26.725Z,21.38
2018-08-28T09:29:26.671Z,21.42
2018-08-28T09:30:26.661Z,21.54
2018-08-28T09:31:26.654Z,21.68
2018-08-28T09:32:26.785Z,21.54
2018-08-28T09:33:26.674Z,21.49
2018-08-28T09:34:26.611Z,21.69
2018-08-28T09:35:26.603Z,21.67
2018-08-28T09:36:26.599Z,21.64
2018-08-28T09:37:26.579Z,21.71
2018-08-28T09:38:26.630Z,21.64
2018-08-28T09:39:26.603Z,21.68
2018-08-28T09:40:26.545Z,21.86
2018-08-28T09:41:26.554Z,21.90
2018-08-28T09:42:26.566Z,21.94
2018-08-28T09:43:26.516Z,22.02
2018-08-28T09:44:26.555Z,21.94
2018-08-28T09:45:26.489Z,21.99
2018-08-28T09:46:26.481Z,22.00
2018-08-28T09:47:26.468Z,22.17
2018-08-28T09:48:26.466Z,22.18
2018-08-28T09:49:26.494Z,22.05
2018-08-28T09:50:26.471Z,22.15
2018-08-28T09:51:26.424Z,22.14
2018-08-28T09:52:26.410Z,22.15
2018-08-28T09:53:26.414Z,22.15
2018-08-28T09:54:26.432Z,22.22
2018-08-28T09:55:26.384Z,22.09
2018-08-28T09:56:26.420Z,22.07
2018-08-28T09:57:26.358Z,22.15
2018-08-28T09:58:26.354Z,22.12
2018-08-28T09:59:26.380Z,22.15
2018-08-28T10:00:26.322Z,22.33
2018-08-28T10:01:26.309Z,22.21
2018-08-28T10:02:26.304Z,22.24
2018-08-28T10:03:26.288Z,22.18
2018-08-28T10:04:26.331Z,22.18
2018-08-28T10:05:26.264Z,22.24
2018-08-28T10:06:26.257Z,22.20
2018-08-28T10:07:26.251Z,22.28
2018-08-28T10:08:26.231Z,22.25
2018-08-28T10:09:26.282Z,22.33
2018-08-28T10:10:26.217Z,22.45
2018-08-28T10:11:26.204Z,22.46
2018-08-28T10:12:26.196Z,22.35
2018-08-28T10:13:26.181Z,22.22
2018-08-28T10:14:26.214Z,22.31
2018-08-28T10:15:26.157Z,22.24
2018-08-28T10:16:26.147Z,22.22
2018-08-28T10:17:26.193Z,22.20
2018-08-28T10:18:26.129Z,22.15
2018-08-28T10:19:26.154Z,22.15
2018-08-28T10:20:26.099Z,22.33
2018-08-28T10:21:26.088Z,22.27
2018-08-28T10:22:26.076Z,22.31
2018-08-28T10:23:26.065Z,22.25
2018-08-28T10:24:26.100Z,22.25
2018-08-28T10:25:26.076Z,22.17
2018-08-28T10:26:26.033Z,22.25
2018-08-28T10:27:26.022Z,22.09
2018-08-28T10:28:26.009Z,22.24
2018-08-28T10:29:26.068Z,22.35
2018-08-28T10:30:26.140Z,22.37
2018-08-28T10:31:25.977Z,22.43
2018-08-28T10:32:25.967Z,22.40
2018-08-28T10:33:25.997Z,22.43
2018-08-28T10:34:25.992Z,22.58
2018-08-28T10:35:25.934Z,22.52
2018-08-28T10:36:25.921Z,22.73
2018-08-28T10:37:25.914Z,22.55
2018-08-28T10:38:25.903Z,22.65
2018-08-28T10:39:25.937Z,22.73
2018-08-28T10:40:25.879Z,22.70
2018-08-28T10:41:25.871Z,22.82
2018-08-28T10:42:25.856Z,22.92
2018-08-28T10:43:25.850Z,22.82
2018-08-28T10:44:25.885Z,22.94
2018-08-28T10:45:25.825Z,22.92
2018-08-28T10:46:25.849Z,23.01
2018-08-28T10:47:25.807Z,22.95
2018-08-28T10:48:25.797Z,23.00
2018-08-28T10:49:25.837Z,22.94
2018-08-28T10:50:25.767Z,22.94
2018-08-28T10:51:25.756Z,22.92
2018-08-28T10:52:25.748Z,23.09
2018-08-28T10:53:25.734Z,23.22
2018-08-28T10:54:25.790Z,23.36
2018-08-28T10:55:25.712Z,23.39
2018-08-28T10:56:25.700Z,23.47
2018-08-28T10:57:25.695Z,23.53
2018-08-28T10:58:25.682Z,23.51
2018-08-28T10:59:25.718Z,23.66
2018-08-28T11:00:25.662Z,23.76
2018-08-28T11:01:25.647Z,23.73
2018-08-28T11:02:25.636Z,23.72
2018-08-28T11:03:25.634Z,23.65
2018-08-28T11:04:25.710Z,23.60
2018-08-28T11:05:25.605Z,23.66
2018-08-28T11:06:25.605Z,23.60
2018-08-28T11:07:25.582Z,23.68
2018-08-28T11:08:25.572Z,23.57
2018-08-28T11:09:25.640Z,23.51
2018-08-28T11:10:25.549Z,23.39
2018-08-28T11:11:25.539Z,23.43
2018-08-28T11:12:25.526Z,23.36
2018-08-28T11:13:25.518Z,23.28
2018-08-28T11:14:25.552Z,23.33
2018-08-28T11:15:25.494Z,23.39
2018-08-28T11:16:25.484Z,23.40
2018-08-28T11:17:25.477Z,23.33
2018-08-28T11:18:25.518Z,23.46
2018-08-28T11:19:25.523Z,23.35
2018-08-28T11:20:25.441Z,23.31
2018-08-28T11:21:25.432Z,23.31
2018-08-28T11:22:25.470Z,23.35
2018-08-28T11:23:25.423Z,23.22
2018-08-28T11:24:25.458Z,23.31
2018-08-28T11:25:25.385Z,23.35
2018-08-28T11:26:25.383Z,23.38
2018-08-28T11:27:25.364Z,23.43
2018-08-28T11:28:25.353Z,23.43
2018-08-28T11:29:25.420Z,23.40
2018-08-28T11:30:25.374Z,23.46
2018-08-28T11:31:25.475Z,23.32
2018-08-28T11:32:25.308Z,23.32
2018-08-28T11:33:25.299Z,23.46
2018-08-28T11:34:25.287Z,23.35
2018-08-28T11:35:25.326Z,23.32
2018-08-28T11:36:25.265Z,23.48
2018-08-28T11:37:25.254Z,23.53
2018-08-28T11:38:25.266Z,23.55
2018-08-28T11:39:25.240Z,23.57
2018-08-28T11:40:25.271Z,23.66
2018-08-28T11:41:25.216Z,23.78
2018-08-28T11:42:25.206Z,24.02
2018-08-28T11:43:25.194Z,24.13
2018-08-28T11:44:25.178Z,24.06
2018-08-28T11:45:25.215Z,23.97
2018-08-28T11:46:25.163Z,23.72
2018-08-28T11:47:25.147Z,23.70
2018-08-28T11:48:25.139Z,23.70
2018-08-28T11:49:25.126Z,23.60
2018-08-28T11:50:25.157Z,23.57
2018-08-28T11:51:25.115Z,23.58
2018-08-28T11:52:25.094Z,23.60
2018-08-28T11:53:25.080Z,23.69
2018-08-28T11:54:25.134Z,23.55
2018-08-28T11:55:25.103Z,23.61
2018-08-28T11:56:25.055Z,23.65
2018-08-28T11:57:25.036Z,23.72
2018-08-28T11:58:25.025Z,23.73
2018-08-28T11:59:25.014Z,23.83
2018-08-28T12:00:25.047Z,23.88
2018-08-28T12:01:24.991Z,23.78
2018-08-28T12:02:24.980Z,23.83
2018-08-28T12:03:24.972Z,23.70
2018-08-28T12:04:24.963Z,23.88
2018-08-28T12:05:25.072Z,24.18
2018-08-28T12:06:24.939Z,24.16
2018-08-28T12:07:25.011Z,24.32
2018-08-28T12:08:24.942Z,24.39
2018-08-28T12:09:24.903Z,24.39
2018-08-28T12:10:25.047Z,24.45
2018-08-28T12:11:24.896Z,24.76
2018-08-28T12:12:24.873Z,24.99
2018-08-28T12:13:24.863Z,25.35
2018-08-28T12:14:24.852Z,25.32
2018-08-28T12:15:24.883Z,25.33
2018-08-28T12:16:24.829Z,25.23
2018-08-28T12:17:24.821Z,25.39
2018-08-28T12:18:24.807Z,25.75
2018-08-28T12:19:24.800Z,26.33
2018-08-28T12:20:24.872Z,26.92
2018-08-28T12:21:24.773Z,27.13
2018-08-28T12:22:24.769Z,27.55
2018-08-28T12:23:24.751Z,27.65
2018-08-28T12:24:24.744Z,27.17
2018-08-28T12:25:24.792Z,27.50
2018-08-28T12:26:24.718Z,27.87
2018-08-28T12:27:24.715Z,28.36
2018-08-28T12:28:24.698Z,28.64
2018-08-28T12:29:24.686Z,28.86
2018-08-28T12:30:24.730Z,29.02
2018-08-28T12:31:24.684Z,29.39
2018-08-28T12:32:24.656Z,29.76
2018-08-28T12:33:24.646Z,30.00
2018-08-28T12:34:24.639Z,30.15
2018-08-28T12:35:24.673Z,30.16
2018-08-28T12:36:24.614Z,30.13
2018-08-28T12:37:24.610Z,30.16
2018-08-28T12:38:24.594Z,30.34
2018-08-28T12:39:24.589Z,30.37
2018-08-28T12:40:24.615Z,30.05
2018-08-28T12:41:24.560Z,30.02
2018-08-28T12:42:24.565Z,30.07
2018-08-28T12:43:24.538Z,29.97
2018-08-28T12:44:24.529Z,30.08
2018-08-28T12:45:24.579Z,30.20
2018-08-28T12:46:24.509Z,29.73
2018-08-28T12:47:24.507Z,30.07
2018-08-28T12:48:24.490Z,30.17
2018-08-28T12:49:24.474Z,30.38
2018-08-28T12:50:24.516Z,30.49
2018-08-28T12:51:24.577Z,29.87
2018-08-28T12:52:24.446Z,29.51
2018-08-28T12:53:24.434Z,29.00
2018-08-28T12:54:24.425Z,28.68
2018-08-28T12:55:24.458Z,28.55
2018-08-28T12:56:24.401Z,28.48
2018-08-28T12:57:24.389Z,28.41
2018-08-28T12:58:24.379Z,27.99
2018-08-28T12:59:24.423Z,27.88
2018-08-28T13:00:24.509Z,27.32
2018-08-28T13:01:24.350Z,27.00
2018-08-28T13:02:24.533Z,26.40
2018-08-28T13:03:24.325Z,26.15
2018-08-28T13:04:24.315Z,25.92
2018-08-28T13:05:24.349Z,25.85
2018-08-28T13:06:24.299Z,25.92
2018-08-28T13:07:24.338Z,25.87
2018-08-28T13:08:24.300Z,25.73
2018-08-28T13:09:24.263Z,25.62
2018-08-28T13:10:24.294Z,25.58
2018-08-28T13:11:24.242Z,25.42
2018-08-28T13:12:24.229Z,25.45
2018-08-28T13:13:24.220Z,25.33
2018-08-28T13:14:24.217Z,25.40
2018-08-28T13:15:24.239Z,25.35
2018-08-28T13:16:24.200Z,25.42
2018-08-28T13:17:24.173Z,25.45
2018-08-28T13:18:24.167Z,25.33
2018-08-28T13:19:24.155Z,25.35
2018-08-28T13:20:24.187Z,25.20
2018-08-28T13:21:24.130Z,25.18
2018-08-28T13:22:24.120Z,25.20
2018-08-28T13:23:24.110Z,25.13
2018-08-28T13:24:24.119Z,25.20
2018-08-28T13:25:24.170Z,25.10
2018-08-28T13:26:24.092Z,25.23
2018-08-28T13:27:24.067Z,25.06
2018-08-28T13:28:24.065Z,25.05
2018-08-28T13:29:24.044Z,25.02
2018-08-28T13:30:24.031Z,24.98
2018-08-28T13:31:24.066Z,25.05
2018-08-28T13:32:24.012Z,25.05
2018-08-28T13:33:24.008Z,25.05
2018-08-28T13:34:23.988Z,25.10
2018-08-28T13:35:23.975Z,25.05
2018-08-28T13:36:24.020Z,25.08
2018-08-28T13:37:23.955Z,25.00
2018-08-28T13:38:23.954Z,25.00
2018-08-28T13:39:23.936Z,25.05
2018-08-28T13:40:23.953Z,24.93
2018-08-28T13:41:23.955Z,25.00
2018-08-28T13:42:23.915Z,25.00
2018-08-28T13:43:23.888Z,25.00
2018-08-28T13:44:23.878Z,25.00
2018-08-28T13:45:23.881Z,24.93
2018-08-28T13:46:23.900Z,24.99
2018-08-28T13:47:23.852Z,25.09
2018-08-28T13:48:23.849Z,25.17
2018-08-28T13:49:23.821Z,25.18
2018-08-28T13:50:23.819Z,25.18
2018-08-28T13:51:23.849Z,25.08
2018-08-28T13:52:23.789Z,25.06